Arock, Oregon
Current Conditions -  °F | °C
As of 6:55 PM on Wednesday 22 Oct 2014 (Local Time) from KEUL Reporting Station
Overcast Overcast  
Wind Chill: 59°   Ceiling: 11000
Heat Index: 59°   Visibility: 10mi
Dew Point: 34°   Wind: 15mph
Humidity: 39%   Direction: 160°SSE
Pressure: 30.02"   Gusts: NA
Location:  42.91°N, 117.53°W
Report Text: KEUL 230055Z AUTO 16013KT 10SM OVC110 15/01 A3002 RMK AO1
Loading
Personal Weather Stations






























Interactive Weather Map New forecast layout! Learn more

10-Day Weather Forecast

Advertisements
Track Severe Weather on mobile